sensor_id;sensor_type;location;lat;lon;timestamp;pressure;altitude;pressure_sealevel;temperature;humidity
50103;BME280;35993;52.604;10.078;2023-03-03T00:01:18;102056.94;;;0.62;100.00
50103;BME280;35993;52.604;10.078;2023-03-03T00:03:43;102051.84;;;0.59;100.00
50103;BME280;35993;52.604;10.078;2023-03-03T00:06:12;102038.72;;;0.56;100.00
50103;BME280;35993;52.604;10.078;2023-03-03T00:08:38;102043.34;;;0.54;100.00
50103;BME280;35993;52.604;10.078;2023-03-03T00:11:04;102045.75;;;0.57;100.00
50103;BME280;35993;52.604;10.078;2023-03-03T00:13:31;102044.91;;;0.57;100.00
50103;BME280;35993;52.604;10.078;2023-03-03T00:18:45;102050.97;;;0.47;100.00
50103;BME280;35993;52.604;10.078;2023-03-03T00:21:32;102045.72;;;0.46;100.00
50103;BME280;35993;52.604;10.078;2023-03-03T00:26:38;102037.03;;;0.55;100.00
50103;BME280;35993;52.604;10.078;2023-03-03T00:35:19;102026.09;;;0.58;100.00
50103;BME280;35993;52.604;10.078;2023-03-03T00:37:58;102026.84;;;0.60;100.00
50103;BME280;35993;52.604;10.078;2023-03-03T00:40:35;102021.50;;;0.60;100.00
50103;BME280;35993;52.604;10.078;2023-03-03T00:43:01;102020.41;;;0.63;100.00
50103;BME280;35993;52.604;10.078;2023-03-03T00:45:34;102020.75;;;0.70;100.00
50103;BME280;35993;52.604;10.078;2023-03-03T00:48:28;102031.72;;;0.67;100.00
50103;BME280;35993;52.604;10.078;2023-03-03T00:50:56;102032.91;;;0.62;100.00
50103;BME280;35993;52.604;10.078;2023-03-03T00:53:24;102047.84;;;0.65;100.00
50103;BME280;35993;52.604;10.078;2023-03-03T00:55:52;102038.84;;;0.66;100.00
50103;BME280;35993;52.604;10.078;2023-03-03T00:58:18;102046.03;;;0.65;100.00
50103;BME280;35993;52.604;10.078;2023-03-03T01:00:48;102042.16;;;0.70;100.00
50103;BME280;35993;52.604;10.078;2023-03-03T01:03:22;102040.44;;;0.69;100.00
50103;BME280;35993;52.604;10.078;2023-03-03T01:05:50;102034.47;;;0.65;100.00
50103;BME280;35993;52.604;10.078;2023-03-03T01:08:15;102037.75;;;0.69;100.00
50103;BME280;35993;52.604;10.078;2023-03-03T01:10:47;102051.13;;;0.69;100.00
50103;BME280;35993;52.604;10.078;2023-03-03T01:13:15;102059.16;;;0.69;100.00
50103;BME280;35993;52.604;10.078;2023-03-03T01:15:42;102052.72;;;0.71;100.00
50103;BME280;35993;52.604;10.078;2023-03-03T01:18:09;102049.31;;;0.69;100.00
50103;BME280;35993;52.604;10.078;2023-03-03T01:20:35;102047.50;;;0.70;100.00
50103;BME280;35993;52.604;10.078;2023-03-03T01:23:00;102053.59;;;0.72;100.00
50103;BME280;35993;52.604;10.078;2023-03-03T01:25:26;102049.41;;;0.68;100.00
50103;BME280;35993;52.604;10.078;2023-03-03T01:27:52;102052.84;;;0.70;100.00
50103;BME280;35993;52.604;10.078;2023-03-03T01:30:18;102043.13;;;0.69;100.00
50103;BME280;35993;52.604;10.078;2023-03-03T01:32:43;102037.91;;;0.67;100.00
50103;BME280;35993;52.604;10.078;2023-03-03T01:35:09;102031.59;;;0.68;100.00
50103;BME280;35993;52.604;10.078;2023-03-03T01:37:35;102032.53;;;0.67;100.00
50103;BME280;35993;52.604;10.078;2023-03-03T01:40:03;102025.97;;;0.71;100.00
50103;BME280;35993;52.604;10.078;2023-03-03T01:42:28;102036.31;;;0.76;100.00
50103;BME280;35993;52.604;10.078;2023-03-03T01:45:27;102039.00;;;0.76;100.00
50103;BME280;35993;52.604;10.078;2023-03-03T01:48:08;102036.31;;;0.76;100.00
50103;BME280;35993;52.604;10.078;2023-03-03T01:50:40;102034.38;;;0.78;100.00
50103;BME280;35993;52.604;10.078;2023-03-03T01:53:37;102029.88;;;0.78;100.00
50103;BME280;35993;52.604;10.078;2023-03-03T01:56:07;102025.63;;;0.64;100.00
50103;BME280;35993;52.604;10.078;2023-03-03T01:58:39;102026.47;;;0.65;100.00
50103;BME280;35993;52.604;10.078;2023-03-03T02:01:09;102023.41;;;0.58;100.00
50103;BME280;35993;52.604;10.078;2023-03-03T02:03:38;102024.16;;;0.60;100.00
50103;BME280;35993;52.604;10.078;2023-03-03T02:06:07;102020.41;;;0.63;100.00
50103;BME280;35993;52.604;10.078;2023-03-03T02:08:41;102007.75;;;0.65;100.00
50103;BME280;35993;52.604;10.078;2023-03-03T02:11:10;102015.41;;;0.70;100.00
50103;BME280;35993;52.604;10.078;2023-03-03T02:13:36;102008.16;;;0.72;100.00
50103;BME280;35993;52.604;10.078;2023-03-03T02:16:02;102004.38;;;0.74;100.00
50103;BME280;35993;52.604;10.078;2023-03-03T02:18:28;102001.09;;;0.71;100.00
50103;BME280;35993;52.604;10.078;2023-03-03T02:26:16;102003.50;;;0.74;100.00
50103;BME280;35993;52.604;10.078;2023-03-03T02:28:43;101992.69;;;0.75;100.00
50103;BME280;35993;52.604;10.078;2023-03-03T02:31:13;101994.16;;;0.79;100.00
50103;BME280;35993;52.604;10.078;2023-03-03T02:33:44;101993.19;;;0.80;100.00
50103;BME280;35993;52.604;10.078;2023-03-03T02:36:19;101990.41;;;0.82;100.00
50103;BME280;35993;52.604;10.078;2023-03-03T02:44:04;101993.19;;;0.80;100.00
50103;BME280;35993;52.604;10.078;2023-03-03T02:46:37;101993.66;;;0.86;100.00
50103;BME280;35993;52.604;10.078;2023-03-03T02:49:05;102000.09;;;0.83;100.00
50103;BME280;35993;52.604;10.078;2023-03-03T02:51:31;102000.97;;;0.84;100.00
50103;BME280;35993;52.604;10.078;2023-03-03T02:53:57;102002.78;;;0.83;100.00
50103;BME280;35993;52.604;10.078;2023-03-03T02:56:24;101996.44;;;0.73;100.00
50103;BME280;35993;52.604;10.078;2023-03-03T02:58:50;101992.94;;;0.72;100.00
50103;BME280;35993;52.604;10.078;2023-03-03T03:01:16;101994.03;;;0.70;100.00
50103;BME280;35993;52.604;10.078;2023-03-03T03:03:42;102003.75;;;0.71;100.00
50103;BME280;35993;52.604;10.078;2023-03-03T03:06:08;101996.44;;;0.61;100.00
50103;BME280;35993;52.604;10.078;2023-03-03T03:08:34;101992.28;;;0.46;100.00
50103;BME280;35993;52.604;10.078;2023-03-03T03:10:59;101999.50;;;0.57;100.00
50103;BME280;35993;52.604;10.078;2023-03-03T03:13:26;102000.47;;;0.67;100.00
50103;BME280;35993;52.604;10.078;2023-03-03T03:15:52;101995.75;;;0.71;100.00
50103;BME280;35993;52.604;10.078;2023-03-03T03:18:17;101992.19;;;0.70;100.00
50103;BME280;35993;52.604;10.078;2023-03-03T03:20:44;101995.38;;;0.53;100.00
50103;BME280;35993;52.604;10.078;2023-03-03T03:23:10;102000.94;;;0.61;100.00
50103;BME280;35993;52.604;10.078;2023-03-03T03:25:36;102005.47;;;0.72;100.00
50103;BME280;35993;52.604;10.078;2023-03-03T03:28:14;102001.72;;;0.74;100.00
50103;BME280;35993;52.604;10.078;2023-03-03T03:30:41;102005.97;;;0.77;100.00
50103;BME280;35993;52.604;10.078;2023-03-03T03:33:08;102003.88;;;0.69;100.00
50103;BME280;35993;52.604;10.078;2023-03-03T03:35:35;102005.56;;;0.47;100.00
50103;BME280;35993;52.604;10.078;2023-03-03T03:38:01;102008.59;;;0.54;100.00
50103;BME280;35993;52.604;10.078;2023-03-03T03:40:27;102014.66;;;0.56;100.00
50103;BME280;35993;52.604;10.078;2023-03-03T03:42:53;102016.25;;;0.59;100.00
50103;BME280;35993;52.604;10.078;2023-03-03T03:45:19;102018.91;;;0.59;100.00
50103;BME280;35993;52.604;10.078;2023-03-03T03:47:46;102019.78;;;0.59;100.00
50103;BME280;35993;52.604;10.078;2023-03-03T03:50:13;102025.75;;;0.63;100.00
50103;BME280;35993;52.604;10.078;2023-03-03T03:52:39;102026.59;;;0.63;100.00
50103;BME280;35993;52.604;10.078;2023-03-03T03:55:05;102027.19;;;0.67;100.00
50103;BME280;35993;52.604;10.078;2023-03-03T03:57:32;102028.16;;;0.66;100.00
50103;BME280;35993;52.604;10.078;2023-03-03T03:59:58;102024.28;;;0.70;100.00
50103;BME280;35993;52.604;10.078;2023-03-03T04:02:24;102028.78;;;0.70;100.00
50103;BME280;35993;52.604;10.078;2023-03-03T04:04:50;102019.41;;;0.53;100.00
50103;BME280;35993;52.604;10.078;2023-03-03T04:07:15;102023.06;;;0.52;100.00
50103;BME280;35993;52.604;10.078;2023-03-03T04:09:41;102022.69;;;0.56;100.00
50103;BME280;35993;52.604;10.078;2023-03-03T04:12:07;102023.19;;;0.50;100.00
50103;BME280;35993;52.604;10.078;2023-03-03T04:14:33;102025.47;;;0.55;100.00
50103;BME280;35993;52.604;10.078;2023-03-03T04:16:59;102019.78;;;0.59;100.00
50103;BME280;35993;52.604;10.078;2023-03-03T04:19:25;102022.81;;;0.66;100.00
50103;BME280;35993;52.604;10.078;2023-03-03T04:21:51;102024.78;;;0.64;100.00
50103;BME280;35993;52.604;10.078;2023-03-03T04:24:16;102024.78;;;0.64;100.00
50103;BME280;35993;52.604;10.078;2023-03-03T04:26:44;102033.16;;;0.71;100.00
50103;BME280;35993;52.604;10.078;2023-03-03T04:29:10;102029.03;;;0.78;100.00
50103;BME280;35993;52.604;10.078;2023-03-03T04:31:36;102026.13;;;0.81;100.00
50103;BME280;35993;52.604;10.078;2023-03-03T04:34:04;102026.00;;;0.82;100.00
50103;BME280;35993;52.604;10.078;2023-03-03T04:36:30;102025.16;;;0.82;100.00
50103;BME280;35993;52.604;10.078;2023-03-03T04:38:56;102033.19;;;0.82;100.00
50103;BME280;35993;52.604;10.078;2023-03-03T04:41:22;102028.78;;;0.81;100.00
50103;BME280;35993;52.604;10.078;2023-03-03T04:43:48;102026.84;;;0.72;100.00
50103;BME280;35993;52.604;10.078;2023-03-03T04:46:13;102030.34;;;0.61;100.00
50103;BME280;35993;52.604;10.078;2023-03-03T04:48:39;102028.50;;;0.61;100.00
50103;BME280;35993;52.604;10.078;2023-03-03T04:51:05;102021.00;;;0.67;100.00
50103;BME280;35993;52.604;10.078;2023-03-03T04:53:32;102017.09;;;0.59;100.00
50103;BME280;35993;52.604;10.078;2023-03-03T04:55:58;102011.75;;;0.48;100.00
50103;BME280;35993;52.604;10.078;2023-03-03T04:58:24;102022.19;;;0.40;100.00
50103;BME280;35993;52.604;10.078;2023-03-03T05:00:53;102014.66;;;0.45;100.00
50103;BME280;35993;52.604;10.078;2023-03-03T05:03:19;102006.75;;;0.55;100.00
50103;BME280;35993;52.604;10.078;2023-03-03T05:05:46;102006.91;;;0.64;100.00
50103;BME280;35993;52.604;10.078;2023-03-03T05:08:12;101996.94;;;0.55;100.00
50103;BME280;35993;52.604;10.078;2023-03-03T05:10:38;101993.03;;;0.48;100.00
50103;BME280;35993;52.604;10.078;2023-03-03T05:13:04;101995.22;;;0.43;100.00
50103;BME280;35993;52.604;10.078;2023-03-03T05:15:31;101987.19;;;0.43;100.00
50103;BME280;35993;52.604;10.078;2023-03-03T05:17:57;101984.78;;;0.40;100.00
50103;BME280;35993;52.604;10.078;2023-03-03T05:20:24;101986.97;;;0.35;100.00
50103;BME280;35993;52.604;10.078;2023-03-03T05:22:49;101991.09;;;0.39;100.00
50103;BME280;35993;52.604;10.078;2023-03-03T05:25:15;101988.66;;;0.47;100.00
50103;BME280;35993;52.604;10.078;2023-03-03T05:27:41;101995.84;;;0.46;100.00
50103;BME280;35993;52.604;10.078;2023-03-03T05:30:09;101992.28;;;0.46;100.00
50103;BME280;35993;52.604;10.078;2023-03-03T05:32:35;101992.06;;;0.38;100.00
50103;BME280;35993;52.604;10.078;2023-03-03T05:35:01;101992.19;;;0.36;100.00
50103;BME280;35993;52.604;10.078;2023-03-03T05:37:27;101989.97;;;0.30;100.00
50103;BME280;35993;52.604;10.078;2023-03-03T05:39:52;101994.44;;;0.29;100.00
50103;BME280;35993;52.604;10.078;2023-03-03T05:42:18;102001.50;;;0.30;100.00
50103;BME280;35993;52.604;10.078;2023-03-03T05:44:45;102008.09;;;0.49;100.00
50103;BME280;35993;52.604;10.078;2023-03-03T05:47:10;102003.47;;;0.51;100.00
50103;BME280;35993;52.604;10.078;2023-03-03T05:49:36;102005.53;;;0.36;100.00
50103;BME280;35993;52.604;10.078;2023-03-03T05:52:01;102011.50;;;0.40;100.00
50103;BME280;35993;52.604;10.078;2023-03-03T05:54:27;102031.03;;;0.40;100.00
50103;BME280;35993;52.604;10.078;2023-03-03T05:56:52;102024.59;;;0.43;100.00
50103;BME280;35993;52.604;10.078;2023-03-03T05:59:18;102032.88;;;0.40;100.00
50103;BME280;35993;52.604;10.078;2023-03-03T06:01:44;102026.44;;;0.54;100.00
50103;BME280;35993;52.604;10.078;2023-03-03T06:04:09;102032.03;;;0.51;100.00
50103;BME280;35993;52.604;10.078;2023-03-03T06:06:35;102042.09;;;0.47;100.00
50103;BME280;35993;52.604;10.078;2023-03-03T06:09:01;102040.97;;;0.38;100.00
50103;BME280;35993;52.604;10.078;2023-03-03T06:11:27;102038.81;;;0.32;100.00
50103;BME280;35993;52.604;10.078;2023-03-03T06:13:52;102039.63;;;0.32;100.00
50103;BME280;35993;52.604;10.078;2023-03-03T06:16:18;102053.13;;;0.31;100.00
50103;BME280;35993;52.604;10.078;2023-03-03T06:18:43;102047.91;;;0.41;100.00
50103;BME280;35993;52.604;10.078;2023-03-03T06:21:09;102057.16;;;0.48;100.00
50103;BME280;35993;52.604;10.078;2023-03-03T06:23:34;102053.75;;;0.46;100.00
50103;BME280;35993;52.604;10.078;2023-03-03T06:26:00;102062.84;;;0.43;100.00
50103;BME280;35993;52.604;10.078;2023-03-03T06:28:25;102058.81;;;0.26;100.00
50103;BME280;35993;52.604;10.078;2023-03-03T06:30:54;102065.59;;;0.30;100.00
50103;BME280;35993;52.604;10.078;2023-03-03T06:33:21;102065.72;;;0.29;100.00
50103;BME280;35993;52.604;10.078;2023-03-03T06:35:50;102068.91;;;0.34;100.00
50103;BME280;35993;52.604;10.078;2023-03-03T06:38:16;102070.84;;;0.32;100.00
50103;BME280;35993;52.604;10.078;2023-03-03T06:40:42;102067.56;;;0.28;100.00
50103;BME280;35993;52.604;10.078;2023-03-03T06:43:08;102076.06;;;0.34;100.00
50103;BME280;35993;52.604;10.078;2023-03-03T06:45:34;102074.88;;;0.38;100.00
50103;BME280;35993;52.604;10.078;2023-03-03T06:47:59;102077.03;;;0.32;100.00
50103;BME280;35993;52.604;10.078;2023-03-03T06:50:26;102073.88;;;0.27;100.00
50103;BME280;35993;52.604;10.078;2023-03-03T06:53:10;102067.31;;;0.31;100.00
50103;BME280;35993;52.604;10.078;2023-03-03T06:55:37;102068.69;;;0.37;100.00
50103;BME280;35993;52.604;10.078;2023-03-03T06:58:10;102071.22;;;0.39;100.00
50103;BME280;35993;52.604;10.078;2023-03-03T07:00:37;102069.28;;;0.41;100.00
50103;BME280;35993;52.604;10.078;2023-03-03T07:03:16;102073.03;;;0.38;100.00
50103;BME280;35993;52.604;10.078;2023-03-03T07:05:43;102076.13;;;0.45;100.00
50103;BME280;35993;52.604;10.078;2023-03-03T07:08:14;102078.16;;;0.41;100.00
50103;BME280;35993;52.604;10.078;2023-03-03T07:10:41;102087.25;;;0.39;100.00
50103;BME280;35993;52.604;10.078;2023-03-03T07:13:21;102086.31;;;0.40;100.00
50103;BME280;35993;52.604;10.078;2023-03-03T07:15:48;102081.19;;;0.37;100.00
50103;BME280;35993;52.604;10.078;2023-03-03T07:18:36;102080.66;;;0.31;100.00
50103;BME280;35993;52.604;10.078;2023-03-03T07:23:48;102085.25;;;0.29;100.00
50103;BME280;35993;52.604;10.078;2023-03-03T07:26:19;102084.31;;;0.30;100.00
50103;BME280;35993;52.604;10.078;2023-03-03T07:28:55;102083.75;;;0.49;100.00
50103;BME280;35993;52.604;10.078;2023-03-03T07:31:37;102082.44;;;0.44;100.00
50103;BME280;35993;52.604;10.078;2023-03-03T07:34:37;102086.50;;;0.37;100.00
50103;BME280;35993;52.604;10.078;2023-03-03T07:37:09;102091.91;;;0.48;100.00
50103;BME280;35993;52.604;10.078;2023-03-03T07:39:39;102099.78;;;0.49;100.00
50103;BME280;35993;52.604;10.078;2023-03-03T07:42:40;102100.44;;;0.64;100.00
50103;BME280;35993;52.604;10.078;2023-03-03T07:45:31;102102.13;;;0.54;100.00
50103;BME280;35993;52.604;10.078;2023-03-03T07:48:25;102096.75;;;0.43;100.00
50103;BME280;35993;52.604;10.078;2023-03-03T07:50:56;102110.34;;;0.51;100.00
50103;BME280;35993;52.604;10.078;2023-03-03T07:53:28;102106.44;;;0.32;100.00
50103;BME280;35993;52.604;10.078;2023-03-03T07:55:53;102114.63;;;0.18;100.00
50103;BME280;35993;52.604;10.078;2023-03-03T07:58:35;102113.47;;;0.34;100.00
50103;BME280;35993;52.604;10.078;2023-03-03T08:04:26;102122.75;;;0.52;100.00
50103;BME280;35993;52.604;10.078;2023-03-03T08:06:57;102120.38;;;0.60;100.00
50103;BME280;35993;52.604;10.078;2023-03-03T08:14:34;102130.34;;;0.70;100.00
50103;BME280;35993;52.604;10.078;2023-03-03T08:17:00;102130.59;;;0.78;100.00
50103;BME280;35993;52.604;10.078;2023-03-03T08:19:27;102134.84;;;0.69;100.00
50103;BME280;35993;52.604;10.078;2023-03-03T08:22:33;102139.34;;;0.69;100.00
50103;BME280;35993;52.604;10.078;2023-03-03T08:25:00;102133.56;;;0.51;100.00
50103;BME280;35993;52.604;10.078;2023-03-03T08:27:26;102127.72;;;0.45;100.00
50103;BME280;35993;52.604;10.078;2023-03-03T08:29:52;102134.28;;;0.41;100.00
50103;BME280;35993;52.604;10.078;2023-03-03T08:32:17;102136.16;;;0.63;100.00
50103;BME280;35993;52.604;10.078;2023-03-03T08:34:43;102141.66;;;0.73;100.00
50103;BME280;35993;52.604;10.078;2023-03-03T08:37:08;102135.34;;;0.74;100.00
50103;BME280;35993;52.604;10.078;2023-03-03T08:39:34;102128.34;;;0.96;100.00
50103;BME280;35993;52.604;10.078;2023-03-03T08:41:59;102133.19;;;0.91;100.00
50103;BME280;35993;52.604;10.078;2023-03-03T08:44:25;102128.34;;;0.85;100.00
50103;BME280;35993;52.604;10.078;2023-03-03T08:46:51;102134.66;;;0.95;100.00
50103;BME280;35993;52.604;10.078;2023-03-03T08:49:16;102130.06;;;1.08;100.00
50103;BME280;35993;52.604;10.078;2023-03-03T08:51:44;102125.44;;;0.99;100.00
50103;BME280;35993;52.604;10.078;2023-03-03T08:54:10;102122.59;;;0.89;100.00
50103;BME280;35993;52.604;10.078;2023-03-03T08:56:35;102127.59;;;0.82;100.00
50103;BME280;35993;52.604;10.078;2023-03-03T08:59:01;102123.09;;;0.72;100.00
50103;BME280;35993;52.604;10.078;2023-03-03T09:01:26;102124.06;;;0.82;100.00
50103;BME280;35993;52.604;10.078;2023-03-03T09:03:52;102125.91;;;0.93;100.00
50103;BME280;35993;52.604;10.078;2023-03-03T09:06:18;102123.75;;;1.09;100.00
50103;BME280;35993;52.604;10.078;2023-03-03T09:08:43;102120.81;;;1.24;100.00
50103;BME280;35993;52.604;10.078;2023-03-03T09:11:12;102116.22;;;1.14;100.00
50103;BME280;35993;52.604;10.078;2023-03-03T09:13:38;102122.41;;;1.04;100.00
50103;BME280;35993;52.604;10.078;2023-03-03T09:16:12;102121.19;;;0.96;100.00
50103;BME280;35993;52.604;10.078;2023-03-03T09:18:38;102128.94;;;1.00;100.00
50103;BME280;35993;52.604;10.078;2023-03-03T09:21:25;102129.06;;;0.98;100.00
50103;BME280;35993;52.604;10.078;2023-03-03T09:23:58;102126.66;;;1.06;100.00
50103;BME280;35993;52.604;10.078;2023-03-03T09:26:46;102139.19;;;1.17;100.00
50103;BME280;35993;52.604;10.078;2023-03-03T09:31:50;102133.97;;;1.27;100.00
50103;BME280;35993;52.604;10.078;2023-03-03T09:34:26;102134.81;;;1.27;100.00
50103;BME280;35993;52.604;10.078;2023-03-03T09:36:55;102137.63;;;1.26;100.00
50103;BME280;35993;52.604;10.078;2023-03-03T09:39:24;102129.47;;;1.16;100.00
50103;BME280;35993;52.604;10.078;2023-03-03T09:47:24;102137.59;;;1.03;100.00
50103;BME280;35993;52.604;10.078;2023-03-03T09:52:51;102129.72;;;1.13;100.00
50103;BME280;35993;52.604;10.078;2023-03-03T09:58:18;102131.06;;;1.41;100.00
50103;BME280;35993;52.604;10.078;2023-03-03T10:15:20;102142.25;;;1.46;100.00
50103;BME280;35993;52.604;10.078;2023-03-03T10:21:01;102138.00;;;1.55;100.00
50103;BME280;35993;52.604;10.078;2023-03-03T10:23:45;102137.50;;;1.73;100.00
50103;BME280;35993;52.604;10.078;2023-03-03T10:32:46;102152.94;;;1.69;100.00
50103;BME280;35993;52.604;10.078;2023-03-03T10:38:21;102147.34;;;1.72;100.00
50103;BME280;35993;52.604;10.078;2023-03-03T11:00:34;102151.34;;;2.33;100.00
50103;BME280;35993;52.604;10.078;2023-03-03T11:06:09;102150.00;;;2.27;100.00
50103;BME280;35993;52.604;10.078;2023-03-03T11:11:49;102138.91;;;2.32;100.00
50103;BME280;35993;52.604;10.078;2023-03-03T11:20:41;102130.25;;;2.40;100.00
50103;BME280;35993;52.604;10.078;2023-03-03T11:32:06;102125.19;;;2.25;100.00
50103;BME280;35993;52.604;10.078;2023-03-03T11:37:25;102111.09;;;2.44;100.00
50103;BME280;35993;52.604;10.078;2023-03-03T11:39:56;102108.59;;;2.32;100.00
50103;BME280;35993;52.604;10.078;2023-03-03T11:45:19;102103.75;;;2.46;100.00
50103;BME280;35993;52.604;10.078;2023-03-03T11:47:53;102102.00;;;2.36;100.00
50103;BME280;35993;52.604;10.078;2023-03-03T11:50:25;102101.09;;;2.46;100.00
50103;BME280;35993;52.604;10.078;2023-03-03T11:53:08;102101.44;;;2.74;100.00
50103;BME280;35993;52.604;10.078;2023-03-03T11:55:40;102094.19;;;2.65;100.00
50103;BME280;35993;52.604;10.078;2023-03-03T11:58:19;102094.44;;;2.83;100.00
50103;BME280;35993;52.604;10.078;2023-03-03T12:00:54;102085.41;;;2.84;100.00
50103;BME280;35993;52.604;10.078;2023-03-03T12:06:12;102090.09;;;2.71;100.00
50103;BME280;35993;52.604;10.078;2023-03-03T12:11:54;102087.66;;;2.89;100.00
50103;BME280;35993;52.604;10.078;2023-03-03T12:22:36;102076.28;;;2.97;100.00
50103;BME280;35993;52.604;10.078;2023-03-03T12:27:55;102066.97;;;3.32;100.00
50103;BME280;35993;52.604;10.078;2023-03-03T12:30:54;102070.25;;;3.35;100.00
50103;BME280;35993;52.604;10.078;2023-03-03T12:36:34;102067.13;;;3.30;100.00
50103;BME280;35993;52.604;10.078;2023-03-03T12:38:59;102063.56;;;3.30;100.00
50103;BME280;35993;52.604;10.078;2023-03-03T12:42:02;102055.66;;;3.28;100.00
50103;BME280;35993;52.604;10.078;2023-03-03T12:44:44;102051.81;;;3.21;100.00
50103;BME280;35993;52.604;10.078;2023-03-03T12:52:48;102060.50;;;3.34;100.00
50103;BME280;35993;52.604;10.078;2023-03-03T13:01:28;102053.69;;;3.30;100.00
50103;BME280;35993;52.604;10.078;2023-03-03T13:04:13;102053.81;;;3.19;100.00
50103;BME280;35993;52.604;10.078;2023-03-03T13:06:57;102049.13;;;3.21;100.00
50103;BME280;35993;52.604;10.078;2023-03-03T13:09:59;102051.56;;;3.34;100.00
50103;BME280;35993;52.604;10.078;2023-03-03T13:18:14;102032.66;;;3.35;100.00
50103;BME280;35993;52.604;10.078;2023-03-03T13:20:49;102023.50;;;3.38;100.00
50103;BME280;35993;52.604;10.078;2023-03-03T13:25:58;102029.19;;;3.54;100.00
50103;BME280;35993;52.604;10.078;2023-03-03T13:31:17;102020.63;;;3.30;100.00
50103;BME280;35993;52.604;10.078;2023-03-03T13:36:17;102021.06;;;3.35;100.00
50103;BME280;35993;52.604;10.078;2023-03-03T13:38:48;102019.25;;;3.35;100.00
50103;BME280;35993;52.604;10.078;2023-03-03T13:41:50;102014.69;;;3.26;100.00
50103;BME280;35993;52.604;10.078;2023-03-03T13:44:33;102013.84;;;3.25;100.00
50103;BME280;35993;52.604;10.078;2023-03-03T13:49:42;102001.69;;;3.31;100.00
50103;BME280;35993;52.604;10.078;2023-03-03T13:52:23;102006.19;;;3.11;100.00
50103;BME280;35993;52.604;10.078;2023-03-03T13:55:11;101997.59;;;3.17;100.00
50103;BME280;35993;52.604;10.078;2023-03-03T14:00:33;101990.69;;;3.34;100.00
50103;BME280;35993;52.604;10.078;2023-03-03T14:03:14;101997.47;;;3.38;100.00
50103;BME280;35993;52.604;10.078;2023-03-03T14:05:58;101985.28;;;3.15;100.00
50103;BME280;35993;52.604;10.078;2023-03-03T14:08:40;101997.00;;;3.23;100.00
50103;BME280;35993;52.604;10.078;2023-03-03T14:11:28;101986.41;;;3.22;100.00
50103;BME280;35993;52.604;10.078;2023-03-03T14:13:58;101982.25;;;3.49;100.00
50103;BME280;35993;52.604;10.078;2023-03-03T14:16:50;101983.53;;;3.54;100.00
50103;BME280;35993;52.604;10.078;2023-03-03T14:19:31;101969.88;;;3.17;100.00
50103;BME280;35993;52.604;10.078;2023-03-03T14:24:58;101970.50;;;3.30;100.00
50103;BME280;35993;52.604;10.078;2023-03-03T14:27:27;101972.75;;;3.25;100.00
50103;BME280;35993;52.604;10.078;2023-03-03T14:29:57;101975.97;;;3.28;100.00
50103;BME280;35993;52.604;10.078;2023-03-03T14:32:26;101976.56;;;3.22;100.00
50103;BME280;35993;52.604;10.078;2023-03-03T14:35:00;101965.38;;;3.17;100.00
50103;BME280;35993;52.604;10.078;2023-03-03T14:37:45;101969.91;;;3.26;100.00
50103;BME280;35993;52.604;10.078;2023-03-03T14:40:18;101975.03;;;3.39;100.00
50103;BME280;35993;52.604;10.078;2023-03-03T14:47:58;101971.56;;;3.08;100.00
50103;BME280;35993;52.604;10.078;2023-03-03T14:50:38;101964.19;;;2.90;100.00
50103;BME280;35993;52.604;10.078;2023-03-03T14:55:38;101961.94;;;3.05;100.00
50103;BME280;35993;52.604;10.078;2023-03-03T14:58:23;101965.16;;;2.99;100.00
50103;BME280;35993;52.604;10.078;2023-03-03T15:00:50;101968.53;;;2.91;100.00
50103;BME280;35993;52.604;10.078;2023-03-03T15:03:26;101957.84;;;3.01;100.00
50103;BME280;35993;52.604;10.078;2023-03-03T15:05:55;101959.28;;;3.15;100.00
50103;BME280;35993;52.604;10.078;2023-03-03T15:08:29;101954.50;;;3.19;100.00
50103;BME280;35993;52.604;10.078;2023-03-03T15:13:38;101948.22;;;2.99;100.00
50103;BME280;35993;52.604;10.078;2023-03-03T15:16:21;101945.44;;;3.10;100.00
50103;BME280;35993;52.604;10.078;2023-03-03T15:19:13;101939.53;;;3.16;100.00
50103;BME280;35993;52.604;10.078;2023-03-03T15:24:41;101936.53;;;3.09;100.00
50103;BME280;35993;52.604;10.078;2023-03-03T15:27:20;101932.75;;;3.12;100.00
50103;BME280;35993;52.604;10.078;2023-03-03T15:30:06;101935.13;;;3.05;100.00
50103;BME280;35993;52.604;10.078;2023-03-03T15:33:14;101935.97;;;3.06;100.00
50103;BME280;35993;52.604;10.078;2023-03-03T15:35:53;101926.91;;;3.07;100.00
50103;BME280;35993;52.604;10.078;2023-03-03T15:41:42;101913.16;;;2.81;100.00
50103;BME280;35993;52.604;10.078;2023-03-03T15:44:16;101913.47;;;2.87;100.00
50103;BME280;35993;52.604;10.078;2023-03-03T15:55:12;101907.56;;;2.93;100.00
50103;BME280;35993;52.604;10.078;2023-03-03T15:58:04;101911.81;;;2.96;100.00
50103;BME280;35993;52.604;10.078;2023-03-03T16:03:58;101897.88;;;2.61;100.00
50103;BME280;35993;52.604;10.078;2023-03-03T16:07:00;101893.09;;;2.65;100.00
50103;BME280;35993;52.604;10.078;2023-03-03T16:09:48;101896.16;;;2.60;100.00
50103;BME280;35993;52.604;10.078;2023-03-03T16:12:27;101892.34;;;2.53;100.00
50103;BME280;35993;52.604;10.078;2023-03-03T16:20:41;101881.72;;;2.42;100.00
50103;BME280;35993;52.604;10.078;2023-03-03T16:23:28;101884.50;;;2.40;100.00
50103;BME280;35993;52.604;10.078;2023-03-03T16:31:23;101885.38;;;2.41;100.00
50103;BME280;35993;52.604;10.078;2023-03-03T16:34:40;101887.06;;;2.42;100.00
50103;BME280;35993;52.604;10.078;2023-03-03T16:36:53;101885.38;;;2.41;100.00